Aviation Digital Data Service (ADDS)

Output produced by METARs form (1544 UTC 06 July 2015)
found at http://www.aviationweather.gov/adds/metars/
 
KJST 061454Z AUTO 16006KT 10SM BKN015 OVC022 22/18 A3015 RMK AO2 SLP197 T02170183 55003
KJST 061422Z AUTO 14006KT 10SM OVC011 21/18 A3015 RMK AO2 T02060183
KJST 061354Z AUTO 14007KT 10SM OVC008 21/18 A3015 RMK AO2 CIG 007V012 SLP197 T02060183
KJST 061322Z AUTO 13006KT 10SM BKN008 BKN014 OVC030 21/18 A3017 RMK AO2 CIG 007V011 T02060183
KJST 061313Z AUTO 15006KT 10SM SCT008 BKN017 OVC030 21/18 A3017 RMK AO2 CIG 012V023 T02060183
KJST 061254Z AUTO 14006KT 10SM BKN008 BKN036 OVC065 20/18 A3016 RMK AO2 SLP201 T02000178
KJST 061202Z AUTO 15006KT 10SM OVC008 19/18 A3016 RMK AO2 CIG 007V014 T01940178
KJST 061154Z AUTO 16003KT 10SM OVC010 19/18 A3016 RMK AO2 CIG 007V014 SLP201 60000 T01940178 10200 20194 53009
KJST 061054Z AUTO 16009KT 10SM OVC010 19/18 A3015 RMK AO2 CIG 007V013 SLP197 T01940178
KJST 061032Z AUTO 15006KT 8SM BKN009 OVC014 19/18 A3015 RMK AO2 CIG 007V011 T01940178
KJST 061020Z AUTO 14005KT 8SM BKN010 BKN014 OVC110 19/18 A3014 RMK AO2 CIG 006V012 T01940178
KJST 060954Z AUTO 14007KT 7SM BKN008 OVC095 19/18 A3014 RMK AO2 RAE0857 CIG 005V012 SLP191 P0000 T01940178
KJST 060854Z AUTO 13005KT 7SM -RA BKN006 OVC110 19/18 A3014 RMK AO2 RAB39 SLP191 P0000 60000 T01940178 58005
KJST 060821Z AUTO 14006KT 5SM BR BKN006 19/18 A3013 RMK AO2 T01940178
KJST 060802Z AUTO 13006KT 6SM BR FEW007 FEW075 SCT110 19/18 A3014 RMK AO2 T01940178
KJST 060754Z AUTO 13005KT 6SM BR SCT070 BKN110 19/18 A3014 RMK AO2 SLP191 T01940178
KJST 060654Z AUTO 15005KT 6SM BR FEW013 BKN060 OVC110 19/18 A3015 RMK AO2 SLP197 T01940178
KJST 060554Z AUTO 14004KT 7SM BKN065 OVC100 20/18 A3015 RMK AO2 SLP195 T02000178 10217 20194 58007
KJST 060454Z AUTO 14004KT 8SM SCT055 SCT110 20/17 A3017 RMK AO2 SLP202 T02000172 402500139
KJST 060354Z AUTO 15006KT 10SM FEW049 BKN060 20/17 A3018 RMK AO2 SLP205 T02000167
KJST 060254Z AUTO 12005KT 10SM SCT050 SCT070 20/17 A3017 RMK AO2 SLP205 T02000167 50004
KJST 060154Z AUTO 12004KT 10SM BKN065 20/17 A3018 RMK AO2 SLP207 T02000167
KJST 060054Z AUTO 14006KT 10SM CLR 21/17 A3017 RMK AO2 SLP205 T02060167
KJST 052354Z AUTO 09003KT 10SM CLR 22/17 A3016 RMK AO2 SLP203 T02170167 10250 20217 53000
KJST 052254Z AUTO 13005KT 10SM SCT030 23/16 A3016 RMK AO2 SLP203 T02280161
KJST 052154Z AUTO 12007KT 090V160 10SM CLR 23/16 A3016 RMK AO2 SLP202 T02330156
KJST 052054Z AUTO 14008KT 10SM BKN043 24/15 A3016 RMK AO2 SLP202 T02390150 56008
KJST 051954Z AUTO VRB05KT 10SM CLR 24/15 A3016 RMK AO2 SLP204 T02390150
KJST 051854Z AUTO VRB06KT 10SM FEW046 24/14 A3017 RMK AO2 SLP207 T02390144
KJST 051754Z AUTO 00000KT 10SM FEW038 24/12 A3019 RMK AO2 SLP210 T02390117 10244 20156 58003
KJST 051654Z AUTO 22003KT 10SM CLR 23/14 A3020 RMK AO2 SLP214 T02330139
KJST 051554Z AUTO 00000KT 10SM CLR 23/13 A3020 RMK AO2 SLP213 T02280133
KJST 051454Z AUTO VRB03KT 10SM CLR 21/13 A3020 RMK AO2 SLP213 T02110133 50004
KJST 051354Z AUTO 17003KT 10SM CLR 19/13 A3021 RMK AO2 SLP218 T01940133
KJST 051254Z AUTO 23004KT 8SM CLR 17/14 A3020 RMK AO2 SLP215 T01720139
KJST 051154Z AUTO 23004KT 6SM BR CLR 16/13 A3018 RMK AO2 SLP211 70001 T01560133 10161 20139 51015
KJST 051054Z AUTO 22005KT 7SM CLR 15/13 A3017 RMK AO2 SLP208 T01500128
KJST 050954Z AUTO 23005KT 9SM CLR 14/12 A3015 RMK AO2 SLP199 T01440122
KJST 050854Z AUTO 21005KT 8SM CLR 14/13 A3013 RMK AO2 SLP194 T01440128 51006
KJST 050754Z AUTO 00000KT 10SM CLR 15/12 A3013 RMK AO2 SLP191 T01500117
KJST 050654Z AUTO 19003KT 7SM CLR 15/12 A3012 RMK AO2 SLP190 T01500122
KJST 050554Z AUTO 35004KT 10SM CLR 16/11 A3011 RMK AO2 SLP187 T01610106 10211 20161 50008
KJST 050454Z AUTO 01004KT 10SM CLR 17/11 A3012 RMK AO2 SLP190 T01720111 402390161
KJST 050354Z AUTO 02005KT 10SM CLR 18/12 A3010 RMK AO2 SLP186 T01780117